createdAt,value
2023-05-31T00:04:45.848Z,12.32
2023-05-31T00:09:50.519Z,12.90
2023-05-31T00:14:53.946Z,13.10
2023-05-31T00:19:57.174Z,13.05
2023-05-31T00:25:01.996Z,11.82
2023-05-31T00:30:08.045Z,13.07
2023-05-31T00:35:11.458Z,12.02
2023-05-31T00:40:16.700Z,12.77
2023-05-31T00:45:20.133Z,13.88
2023-05-31T00:50:23.892Z,11.00
2023-05-31T00:55:29.319Z,10.23
2023-05-31T01:00:33.749Z,9.05
2023-05-31T01:05:37.065Z,8.80
2023-05-31T01:10:41.776Z,9.57
2023-05-31T01:15:52.683Z,9.40
2023-05-31T01:20:59.494Z,8.95
2023-05-31T01:26:37.771Z,8.32
2023-05-31T01:31:43.879Z,8.52
2023-05-31T01:36:47.229Z,8.52
2023-05-31T01:41:54.141Z,8.32
2023-05-31T01:46:58.321Z,8.10
2023-05-31T01:52:02.168Z,7.80
2023-05-31T01:57:08.330Z,7.18
2023-05-31T02:02:12.450Z,6.88
2023-05-31T02:07:16.003Z,6.13
2023-05-31T02:12:21.034Z,6.20
2023-05-31T02:17:25.097Z,4.78
2023-05-31T02:22:28.471Z,5.07
2023-05-31T02:27:33.277Z,4.97
2023-05-31T02:32:38.542Z,5.50
2023-05-31T02:37:42.313Z,4.88
2023-05-31T02:42:46.973Z,4.57
2023-05-31T02:47:50.473Z,4.10
2023-05-31T02:52:53.921Z,4.70
2023-05-31T02:57:58.639Z,4.65
2023-05-31T03:03:02.118Z,3.78
2023-05-31T03:08:05.622Z,3.78
2023-05-31T03:13:11.278Z,3.55
2023-05-31T03:18:14.649Z,3.95
2023-05-31T03:23:18.034Z,3.78
2023-05-31T03:28:23.145Z,3.35
2023-05-31T03:33:26.507Z,3.80
2023-05-31T03:38:30.541Z,3.80
2023-05-31T03:43:35.736Z,3.80
2023-05-31T03:48:39.345Z,4.00
2023-05-31T03:53:42.728Z,3.88
2023-05-31T03:58:48.859Z,3.85
2023-05-31T04:03:52.549Z,3.58
2023-05-31T04:08:56.162Z,3.65
2023-05-31T04:14:01.351Z,4.50
2023-05-31T04:19:05.016Z,4.07
2023-05-31T04:24:09.185Z,4.03
2023-05-31T04:29:14.600Z,3.55
2023-05-31T04:34:20.490Z,3.28
2023-05-31T04:39:24.967Z,3.30
2023-05-31T04:44:29.842Z,2.90
2023-05-31T04:49:40.210Z,2.90
2023-05-31T04:54:55.666Z,3.15
2023-05-31T05:00:00.891Z,3.03
2023-05-31T05:05:05.665Z,2.92
2023-05-31T05:10:09.841Z,2.88
2023-05-31T05:15:14.946Z,2.80
2023-05-31T05:20:19.540Z,3.10
2023-05-31T05:25:23.901Z,2.70
2023-05-31T05:30:28.919Z,3.13
2023-05-31T05:35:32.601Z,3.30
2023-05-31T05:40:36.295Z,2.85
2023-05-31T05:45:41.400Z,3.63
2023-05-31T05:50:44.843Z,3.22
2023-05-31T05:55:51.352Z,2.95
2023-05-31T06:00:56.736Z,2.90
2023-05-31T06:06:00.272Z,2.85
2023-05-31T06:11:04.340Z,2.33
2023-05-31T06:16:09.370Z,2.70
2023-05-31T06:21:12.934Z,2.38
2023-05-31T06:26:16.462Z,3.13
2023-05-31T06:31:21.932Z,2.67
2023-05-31T06:36:25.991Z,3.13
2023-05-31T06:41:30.691Z,2.85
2023-05-31T06:46:35.638Z,2.75
2023-05-31T06:51:39.271Z,2.70
2023-05-31T06:56:43.106Z,2.60
2023-05-31T07:01:48.048Z,2.90
2023-05-31T07:06:51.640Z,3.00
2023-05-31T07:11:55.075Z,2.90
2023-05-31T07:16:59.888Z,4.35
2023-05-31T07:22:03.446Z,3.72
2023-05-31T07:27:07.721Z,3.00
2023-05-31T07:32:12.688Z,2.40
2023-05-31T07:37:16.246Z,2.60
2023-05-31T07:42:20.086Z,2.63
2023-05-31T07:47:25.615Z,2.80
2023-05-31T07:52:29.126Z,2.60
2023-05-31T07:57:32.654Z,1.95
2023-05-31T08:02:37.838Z,2.40
2023-05-31T08:07:41.756Z,2.97
2023-05-31T08:12:45.486Z,2.65
2023-05-31T08:17:50.400Z,3.00
2023-05-31T08:22:54.426Z,2.72
2023-05-31T08:27:57.908Z,3.40
2023-05-31T08:33:02.879Z,2.97
2023-05-31T08:38:06.455Z,2.80
2023-05-31T09:13:08.991Z,2.47
2023-05-31T09:18:17.518Z,2.35
2023-05-31T09:23:21.642Z,2.33
2023-05-31T09:28:26.983Z,1.92
2023-05-31T09:33:40.306Z,1.40
2023-05-31T09:38:43.953Z,1.20
2023-05-31T09:43:50.494Z,1.48
2023-05-31T09:49:01.572Z,1.25
2023-05-31T09:54:11.917Z,1.52
2023-05-31T09:59:17.884Z,1.42
2023-05-31T10:04:22.507Z,1.30
2023-05-31T10:09:26.203Z,1.52
2023-05-31T10:14:36.991Z,1.23
2023-05-31T10:19:47.820Z,2.08
2023-05-31T10:24:54.979Z,1.00
2023-05-31T10:30:06.388Z,1.73
2023-05-31T10:35:11.962Z,2.30
2023-05-31T10:40:20.322Z,1.48
2023-05-31T10:45:30.897Z,2.10
2023-05-31T10:50:34.525Z,1.60
2023-05-31T10:55:43.582Z,2.22
2023-05-31T11:00:50.276Z,2.05
2023-05-31T11:05:58.288Z,2.53
2023-05-31T11:11:46.250Z,2.40
2023-05-31T11:17:18.748Z,2.42
2023-05-31T11:22:28.211Z,2.55
2023-05-31T11:27:39.293Z,2.30
2023-05-31T11:33:20.227Z,2.50
2023-05-31T11:38:23.996Z,2.65
2023-05-31T11:43:28.294Z,2.75
2023-05-31T11:48:47.175Z,2.35
2023-05-31T11:53:50.867Z,2.55
2023-05-31T11:58:54.356Z,2.50
2023-05-31T12:04:03.050Z,2.60
2023-05-31T12:09:12.267Z,2.72
2023-05-31T12:14:17.617Z,2.58
2023-05-31T12:19:23.228Z,3.25
2023-05-31T12:24:29.607Z,3.10
2023-05-31T12:29:34.362Z,2.67
2023-05-31T12:34:40.433Z,2.95
2023-05-31T12:39:43.854Z,2.58
2023-05-31T12:44:47.400Z,2.95
2023-05-31T12:49:52.283Z,2.42
2023-05-31T12:54:55.671Z,2.17
2023-05-31T13:00:04.845Z,2.92
2023-05-31T13:05:12.842Z,2.67
2023-05-31T13:10:16.889Z,2.45
2023-05-31T13:15:23.556Z,2.90
2023-05-31T13:20:28.479Z,2.30
2023-05-31T13:25:31.919Z,2.75
2023-05-31T13:30:35.356Z,2.50
2023-05-31T13:35:41.324Z,2.70
2023-05-31T13:40:44.891Z,2.42
2023-05-31T13:45:48.667Z,3.33
2023-05-31T13:50:53.553Z,2.75
2023-05-31T13:56:03.148Z,2.38
2023-05-31T14:01:09.134Z,2.58
2023-05-31T14:06:14.323Z,2.95
2023-05-31T14:11:18.448Z,2.88
2023-05-31T14:16:23.915Z,2.50
2023-05-31T14:21:29.394Z,2.67
2023-05-31T14:26:32.902Z,3.00
2023-05-31T14:31:38.451Z,2.88
2023-05-31T14:36:43.788Z,2.90
2023-05-31T14:41:47.765Z,2.47
2023-05-31T14:46:53.285Z,2.85
2023-05-31T14:51:58.843Z,2.67
2023-05-31T14:57:03.777Z,3.05
2023-05-31T15:02:08.622Z,2.80
2023-05-31T15:07:14.706Z,2.88
2023-05-31T15:12:18.283Z,2.70
2023-05-31T15:17:21.756Z,2.58
2023-05-31T15:22:26.712Z,3.08
2023-05-31T15:27:30.096Z,2.97
2023-05-31T15:32:33.896Z,3.00
2023-05-31T15:37:38.765Z,3.70
2023-05-31T15:42:42.224Z,3.13
2023-05-31T15:47:45.846Z,3.90
2023-05-31T15:52:50.880Z,3.65
2023-05-31T15:57:54.409Z,3.33
2023-05-31T16:02:58.102Z,3.50
2023-05-31T16:08:06.410Z,4.70
2023-05-31T16:13:10.014Z,4.47
2023-05-31T16:18:13.484Z,4.05
2023-05-31T16:23:18.673Z,4.00
2023-05-31T16:28:22.144Z,4.70
2023-05-31T16:33:25.913Z,4.20
2023-05-31T16:38:31.054Z,4.47
2023-05-31T16:43:34.512Z,4.70
2023-05-31T16:48:40.290Z,4.57
2023-05-31T16:53:45.364Z,6.85
2023-05-31T16:58:49.431Z,7.57
2023-05-31T17:03:53.195Z,7.72
2023-05-31T17:08:58.045Z,6.57
2023-05-31T17:14:01.453Z,9.13
2023-05-31T17:19:05.234Z,6.60
2023-05-31T17:24:10.209Z,5.03
2023-05-31T17:29:14.256Z,4.07
2023-05-31T17:34:17.710Z,4.50
2023-05-31T17:39:22.544Z,5.45
2023-05-31T17:44:25.988Z,7.78
2023-05-31T17:49:29.470Z,8.50
2023-05-31T17:54:34.324Z,9.30
2023-05-31T17:59:38.890Z,7.22
2023-05-31T18:04:42.314Z,5.13
2023-05-31T18:09:47.602Z,5.90
2023-05-31T18:14:51.200Z,7.03
2023-05-31T18:19:54.869Z,6.30
2023-05-31T18:24:59.778Z,5.70
2023-05-31T18:30:04.260Z,7.35
2023-05-31T18:35:09.230Z,5.47
2023-05-31T18:40:14.554Z,5.80
2023-05-31T18:45:18.011Z,6.80
2023-05-31T18:50:21.934Z,5.78
2023-05-31T18:55:27.087Z,6.93
2023-05-31T19:00:30.678Z,6.90
2023-05-31T19:05:34.237Z,7.20
2023-05-31T19:10:39.178Z,4.90
2023-05-31T19:15:42.580Z,6.20
2023-05-31T19:20:49.374Z,4.13
2023-05-31T19:25:54.863Z,5.30
2023-05-31T19:30:59.217Z,4.57
2023-05-31T19:36:03.232Z,4.45
2023-05-31T19:41:08.696Z,5.03
2023-05-31T19:46:18.145Z,5.15
2023-05-31T19:51:23.154Z,5.80
2023-05-31T19:56:28.198Z,6.80
2023-05-31T20:01:32.005Z,6.85
2023-05-31T20:06:35.786Z,6.32
2023-05-31T20:11:40.615Z,7.18
2023-05-31T20:16:44.124Z,7.22
2023-05-31T20:21:49.244Z,6.57
2023-05-31T20:26:54.249Z,6.82
2023-05-31T20:31:58.806Z,6.43
2023-05-31T20:37:02.342Z,7.10
2023-05-31T20:42:08.024Z,6.47
2023-05-31T20:47:11.459Z,5.95
2023-05-31T20:52:14.996Z,6.00
2023-05-31T20:57:20.888Z,5.55
2023-05-31T21:02:25.088Z,5.50
2023-05-31T21:07:28.848Z,5.55
2023-05-31T21:12:33.632Z,4.80
2023-05-31T21:17:37.035Z,5.68
2023-05-31T21:22:40.672Z,4.97
2023-05-31T21:27:45.535Z,5.00
2023-05-31T21:32:49.631Z,5.28
2023-05-31T21:37:53.149Z,5.32
2023-05-31T21:42:57.887Z,4.85
2023-05-31T21:48:01.666Z,4.55
2023-05-31T21:53:05.351Z,5.57
2023-05-31T21:58:10.138Z,5.38
2023-05-31T22:03:13.690Z,5.35
2023-05-31T22:08:17.056Z,6.35
2023-05-31T22:13:22.970Z,5.97
2023-05-31T22:18:32.071Z,6.47
2023-05-31T22:23:35.922Z,6.30
2023-05-31T22:28:41.484Z,6.22
2023-05-31T22:33:44.984Z,5.95
2023-05-31T22:38:48.501Z,5.95
2023-05-31T22:43:53.625Z,6.28
2023-05-31T22:48:57.266Z,6.97
2023-05-31T22:54:00.696Z,6.32
2023-05-31T22:59:05.565Z,6.07
2023-05-31T23:04:09.782Z,6.53
2023-05-31T23:09:13.416Z,5.72
2023-05-31T23:14:18.667Z,6.50
2023-05-31T23:19:22.473Z,5.63
2023-05-31T23:24:25.853Z,7.13
2023-05-31T23:29:30.847Z,6.75
2023-05-31T23:34:34.402Z,6.18
2023-05-31T23:39:38.088Z,6.47
2023-05-31T23:44:43.059Z,6.43
2023-05-31T23:49:46.664Z,6.28
2023-05-31T23:54:50.476Z,6.00
2023-05-31T23:59:55.341Z,6.93
